^^
Datos históricos de la estación: Murcia-Puente Tocinos
Diario Informe para Agosto 13, 2021 Unidades:  Métrico    Ingés   Ambas
Diario Semanal Mensual Anual
  Máxima: Mínima: Promedio:
Temperatura: 16.4 °C 4.4 °C 9.2 °C
Punto de rocio: 4.1 °C -3.3 °C -1.1 °C
Humedad: 76% 27.1% 51%
Velocidad viento: 12.2km/h 0km/h 6.7km/h
Racha viento: 22.5km/h - -
Viento- - SSE
Presión: 1028.4 hPa 1024.7 hPa -
Precipitación: 0.0 mm    
 
 
Tabla de datos para Agosto 13, 2021
Hora Temperatura Punto de rocio Presión Viento Velocidad viento Racha viento Humedad Intensidad lluvia(por hora) Nubes
00:04 7.3 °C -2.2 °C 1027.9 hPa Sur 6.5 km/h 11.3 km/h 51% 0.0 mm
00:09 7.3 °C -2.2 °C 1027.9 hPa SSO 6.9 km/h 13 km/h 51% 0.0 mm
00:14 7.2 °C -2.1 °C 1027.6 hPa Sur 6.9 km/h 12.9 km/h 51.5% 0.0 mm
00:19 7.1 °C -2.1 °C 1027.6 hPa Sur 8.2 km/h 13 km/h 52.3% 0.0 mm
00:24 6.8 °C -2.1 °C 1027.6 hPa Sur 8.4 km/h 12.9 km/h 53% 0.0 mm
00:29 6.8 °C -2.2 °C 1027.5 hPa Sur 8.4 km/h 11.3 km/h 53% 0.0 mm
00:34 6.7 °C -2 °C 1027.5 hPa Sur 8.4 km/h 11.1 km/h 53.7% 0.0 mm
00:39 6.7 °C -2 °C 1027.6 hPa Sur 7.1 km/h 11.9 km/h 54% 0.0 mm
00:44 6.6 °C -2.1 °C 1027.6 hPa SSO 6.9 km/h 11.9 km/h 54% 0.0 mm
00:49 6.6 °C -2 °C 1027.6 hPa SSO 6.9 km/h 11.9 km/h 54% 0.0 mm
00:54 6.7 °C -2.1 °C 1027.6 hPa Sur 6.9 km/h 11.3 km/h 53.4% 0.0 mm
00:59 6.7 °C -1.9 °C 1027.5 hPa SSO 6.5 km/h 10.3 km/h 54% 0.0 mm
01:04 6.7 °C -1.9 °C 1027.5 hPa Sur 6.5 km/h 11.3 km/h 54.4% 0.0 mm
01:09 6.6 °C -1.7 °C 1027.5 hPa SSO 6.5 km/h 9.7 km/h 55.4% 0.0 mm
01:14 6.5 °C -1.5 °C 1027.3 hPa Sur 6.5 km/h 14.8 km/h 56.5% 0.0 mm
01:19 6.3 °C -1.4 °C 1027.3 hPa SSO 6.9 km/h 14.5 km/h 57.7% 0.0 mm
01:24 6.2 °C -1.3 °C 1027.3 hPa SSO 6.9 km/h 11.9 km/h 58.8% 0.0 mm
01:29 6.2 °C -1.2 °C 1027.0 hPa SSO 6.9 km/h 11.3 km/h 59.5% 0.0 mm
01:34 6.1 °C -1.1 °C 1027.0 hPa Sur 6.9 km/h 11.3 km/h 60% 0.0 mm
01:39 6 °C -1.2 °C 1027.0 hPa Sur 6.5 km/h 11.1 km/h 60% 0.0 mm
01:44 6 °C -1.2 °C 1026.8 hPa Sur 6.5 km/h 11.3 km/h 60% 0.0 mm
01:49 6.1 °C -1.1 °C 1026.8 hPa SSO 6.5 km/h 13 km/h 60% 0.0 mm
01:54 6.2 °C -0.9 °C 1026.8 hPa SSO 6.5 km/h 13.7 km/h 60% 0.0 mm
01:59 6.3 °C -1 °C 1026.8 hPa SSO 8.4 km/h 14.5 km/h 59.3% 0.0 mm
02:04 6.3 °C -1.1 °C 1026.8 hPa SSO 8.7 km/h 12.9 km/h 59% 0.0 mm
02:09 6.4 °C -1.4 °C 1026.8 hPa Sur 8.4 km/h 14.8 km/h 57.7% 0.0 mm
02:14 6.5 °C -1.6 °C 1026.8 hPa Sur 8.4 km/h 14.5 km/h 56.5% 0.0 mm
02:19 6.7 °C -2 °C 1026.8 hPa SSO 9.3 km/h 14.5 km/h 53.8% 0.0 mm
02:24 7 °C -2.2 °C 1026.8 hPa SSO 9.5 km/h 16.7 km/h 52% 0.0 mm
02:29 7 °C -2.1 °C 1026.7 hPa SSO 9.5 km/h 16.1 km/h 52.5% 0.0 mm
02:34 7 °C -2 °C 1026.7 hPa SSE 9.5 km/h 14.5 km/h 53% 0.0 mm
02:39 6.6 °C -1.8 °C 1026.8 hPa SSE 8.5 km/h 11.3 km/h 55% 0.0 mm
02:44 6.3 °C -1.9 °C 1026.8 hPa Sur 8.4 km/h 11.3 km/h 55.6% 0.0 mm
02:49 6.3 °C -1.9 °C 1026.8 hPa SSE 7.1 km/h 11.3 km/h 55.7% 0.0 mm
02:54 6.3 °C -1.9 °C 1027.0 hPa SSE 6.9 km/h 13 km/h 56% 0.0 mm
02:59 6.1 °C -1.8 °C 1027.0 hPa SSE 8.2 km/h 12.9 km/h 56.9% 0.0 mm
03:04 6.1 °C -2 °C 1027.0 hPa Sur 8.4 km/h 13 km/h 56.1% 0.0 mm
03:09 6.2 °C -2 °C 1027.0 hPa Sur 7.6 km/h 12.9 km/h 56% 0.0 mm
03:14 6.2 °C -2.2 °C 1026.9 hPa Sur 7.6 km/h 13.7 km/h 54.9% 0.0 mm
03:19 6.4 °C -2.3 °C 1026.9 hPa Sur 8.6 km/h 14.5 km/h 54% 0.0 mm
03:24 6.3 °C -2.2 °C 1026.9 hPa SSE 8.7 km/h 15.6 km/h 54.7% 0.0 mm
03:29 6.2 °C -2.2 °C 1026.9 hPa Sur 9.4 km/h 16.7 km/h 55% 0.0 mm
03:34 6.3 °C -2.5 °C 1026.9 hPa Sur 9.5 km/h 16.7 km/h 53.6% 0.0 mm
03:39 6.5 °C -2.7 °C 1026.9 hPa Sur 10.2 km/h 16.1 km/h 52% 0.0 mm
03:44 6.7 °C -2.7 °C 1026.8 hPa Sur 10.3 km/h 14.5 km/h 51.1% 0.0 mm
03:49 6.7 °C -2.7 °C 1026.8 hPa Sur 8.6 km/h 12.9 km/h 51% 0.0 mm
03:54 6.8 °C -3 °C 1026.8 hPa Sur 8.4 km/h 13 km/h 49.7% 0.0 mm
03:59 7 °C -3 °C 1026.8 hPa Sur 8.4 km/h 13 km/h 49.1% 0.0 mm
04:04 6.9 °C -2.8 °C 1026.8 hPa Sur 8.4 km/h 11.3 km/h 50.3% 0.0 mm
04:09 6.7 °C -2.8 °C 1026.8 hPa Sur 7.1 km/h 13.7 km/h 50.9% 0.0 mm
04:14 6.7 °C -3 °C 1026.8 hPa Sur 6.9 km/h 14.5 km/h 50% 0.0 mm
04:19 6.7 °C -3 °C 1026.8 hPa Sur 7.5 km/h 12.9 km/h 50% 0.0 mm
04:24 6.7 °C -2.8 °C 1026.8 hPa Sur 7.6 km/h 13 km/h 50.8% 0.0 mm
04:29 6.6 °C -2.9 °C 1026.7 hPa SSE 8.3 km/h 13 km/h 51% 0.0 mm
04:34 6.5 °C -2.7 °C 1026.7 hPa Sur 8.4 km/h 13.7 km/h 52% 0.0 mm
04:39 6.4 °C -2.8 °C 1026.7 hPa Sur 8.6 km/h 16.1 km/h 52% 0.0 mm
04:44 6.4 °C -2.8 °C 1026.6 hPa SSE 8.7 km/h 16.1 km/h 52% 0.0 mm
04:49 6.3 °C -2.8 °C 1026.6 hPa SSE 9.4 km/h 14.8 km/h 52% 0.0 mm
04:54 6.3 °C -2.7 °C 1026.6 hPa SSE 9.5 km/h 14.5 km/h 52.7% 0.0 mm
04:59 6.2 °C -2.7 °C 1026.6 hPa SSE 9.5 km/h 13 km/h 53% 0.0 mm
05:04 6.2 °C -2.7 °C 1026.6 hPa SSE 9.5 km/h 13 km/h 52.8% 0.0 mm
05:09 6.2 °C -2.9 °C 1026.6 hPa Sur 9.5 km/h 13 km/h 52% 0.0 mm
05:14 6.3 °C -3.1 °C 1026.5 hPa Sur 9.5 km/h 16.7 km/h 51.3% 0.0 mm
05:19 6.3 °C -3.3 °C 1026.5 hPa Sur 9.9 km/h 16.7 km/h 50.1% 0.0 mm
05:24 6.4 °C -3.3 °C 1026.5 hPa Sur 10 km/h 22.2 km/h 50% 0.0 mm
05:29 6.4 °C -3.3 °C 1026.3 hPa Sur 11 km/h 22.5 km/h 50% 0.0 mm
05:34 6.4 °C -3.3 °C 1026.3 hPa Sur 11.1 km/h 19.3 km/h 50% 0.0 mm
05:39 6.4 °C -3.3 °C 1026.3 hPa Sur 11.8 km/h 18.5 km/h 50% 0.0 mm
05:44 6.4 °C -3.3 °C 1026.2 hPa Sur 11.9 km/h 19.3 km/h 50% 0.0 mm
05:49 6.3 °C -3.2 °C 1026.2 hPa Sur 10.2 km/h 16.1 km/h 50.6% 0.0 mm
05:54 6.2 °C -3.2 °C 1026.2 hPa Sur 10 km/h 16.1 km/h 51.1% 0.0 mm
05:59 5.9 °C -3.1 °C 1026.1 hPa SSE 10 km/h 14.8 km/h 52.2% 0.0 mm
06:04 5.7 °C -3.1 °C 1026.1 hPa SSE 10 km/h 15.6 km/h 53.3% 0.0 mm
06:09 5.6 °C -3 °C 1026.2 hPa Sur 10 km/h 14.8 km/h 54% 0.0 mm
06:14 5.4 °C -3 °C 1026.2 hPa Sur 10 km/h 14.5 km/h 54.9% 0.0 mm
06:19 5.3 °C -2.9 °C 1026.2 hPa SSE 9.6 km/h 14.8 km/h 55.2% 0.0 mm
06:24 5.2 °C -2.9 °C 1026.2 hPa SSE 9.5 km/h 16.7 km/h 56% 0.0 mm
06:29 5.2 °C -2.9 °C 1026.2 hPa SSE 10.2 km/h 16.7 km/h 56% 0.0 mm
06:34 5.1 °C -2.9 °C 1026.2 hPa SSE 10.3 km/h 16.1 km/h 56% 0.0 mm
06:39 5.1 °C -2.9 °C 1026.2 hPa SSE 9.6 km/h 14.5 km/h 56% 0.0 mm
06:44 5.2 °C -2.9 °C 1026.2 hPa SSE 9.5 km/h 14.5 km/h 56% 0.0 mm
06:49 5.1 °C -2.8 °C 1026.2 hPa Sur 8.8 km/h 14.8 km/h 56.5% 0.0 mm
06:54 5.1 °C -2.7 °C 1026.3 hPa Sur 8.7 km/h 14.5 km/h 56.9% 0.0 mm
06:59 5.1 °C -2.7 °C 1026.3 hPa Sur 9.4 km/h 16.1 km/h 57% 0.0 mm
07:04 5.1 °C -2.8 °C 1026.3 hPa Sur 9.5 km/h 16.7 km/h 56.6% 0.0 mm
07:09 5.1 °C -2.7 °C 1026.4 hPa Sur 9.5 km/h 14.5 km/h 57% 0.0 mm
07:14 5.1 °C -2.8 °C 1026.4 hPa Sur 9.5 km/h 14.5 km/h 57% 0.0 mm
07:19 4.9 °C -2.9 °C 1026.4 hPa SSO 8.5 km/h 15.6 km/h 57% 0.0 mm
07:24 5.1 °C -2.9 °C 1026.6 hPa SSO 8.4 km/h 16.1 km/h 56.3% 0.0 mm
07:29 5.2 °C -2.9 °C 1026.6 hPa SSO 9.4 km/h 14.5 km/h 56% 0.0 mm
07:34 5.2 °C -3.1 °C 1026.6 hPa SSO 9.5 km/h 13 km/h 55% 0.0 mm
07:39 5.2 °C -3.1 °C 1026.6 hPa Sur 8.8 km/h 12.9 km/h 55% 0.0 mm
07:44 5.2 °C -3.1 °C 1026.6 hPa SSO 8.7 km/h 13 km/h 55% 0.0 mm
07:49 5.2 °C -3.1 °C 1026.6 hPa Sur 8.4 km/h 13 km/h 55% 0.0 mm
07:54 5.2 °C -3.1 °C 1026.8 hPa Sur 8.4 km/h 12.9 km/h 55.1% 0.0 mm
07:59 5.1 °C -3 °C 1026.8 hPa Sur 8.4 km/h 11.9 km/h 56% 0.0 mm
08:04 4.8 °C -3 °C 1026.8 hPa SSE 8.4 km/h 11.3 km/h 57% 0.0 mm
08:09 4.7 °C -2.9 °C 1027.0 hPa Sur 8.7 km/h 11.9 km/h 58% 0.0 mm
08:14 4.6 °C -2.8 °C 1027.0 hPa Sur 8.7 km/h 13 km/h 58.8% 0.0 mm
08:19 4.4 °C -2.9 °C 1027.0 hPa Sur 8.7 km/h 13.7 km/h 59% 0.0 mm
08:24 4.4 °C -2.9 °C 1027.0 hPa Sur 8.7 km/h 14.5 km/h 59% 0.0 mm
08:29 4.4 °C -2.9 °C 1027.0 hPa Sur 9.4 km/h 13 km/h 59% 0.0 mm
08:34 4.4 °C -2.9 °C 1027.0 hPa Sur 9.5 km/h 13 km/h 59% 0.0 mm
08:39 4.5 °C -3 °C 1027.1 hPa Sur 8.8 km/h 13 km/h 58.1% 0.0 mm
08:44 4.7 °C -3 °C 1027.1 hPa SSO 8.7 km/h 12.9 km/h 57.7% 0.0 mm
08:49 4.8 °C -3.1 °C 1027.1 hPa Sur 7.7 km/h 13.7 km/h 56.7% 0.0 mm
08:54 5.2 °C -3.1 °C 1027.3 hPa Sur 7.6 km/h 14.5 km/h 55.3% 0.0 mm
08:59 5.3 °C -3 °C 1027.3 hPa Sur 8.3 km/h 11.3 km/h 54.9% 0.0 mm
09:04 5.6 °C -3 °C 1027.3 hPa Sur 8.4 km/h 11.9 km/h 53.9% 0.0 mm
09:09 5.7 °C -3.1 °C 1027.5 hPa Sur 7.1 km/h 11.3 km/h 53% 0.0 mm
09:14 5.9 °C -3 °C 1027.5 hPa SSE 6.9 km/h 11.3 km/h 53% 0.0 mm
09:19 6.2 °C -2.7 °C 1027.5 hPa SSE 3.7 km/h 4.8 km/h 53% 0.0 mm
09:24 6.3 °C -2.7 °C 1027.7 hPa SSE 3.2 km/h 4.7 km/h 52.4% 0.0 mm
09:29 6.4 °C -2.7 °C 1027.7 hPa Sur 2.4 km/h 6.4 km/h 52% 0.0 mm
09:34 6.6 °C -2.6 °C 1027.7 hPa Sur 2.2 km/h 8.4 km/h 52% 0.0 mm
09:39 6.7 °C -2.7 °C 1027.9 hPa Sur 4.4 km/h 9.5 km/h 51.3% 0.0 mm
09:44 6.9 °C -2.8 °C 1027.9 hPa SSE 4.7 km/h 10.3 km/h 50% 0.0 mm
09:49 7.3 °C -2.9 °C 1027.9 hPa Sur 6.7 km/h 11.9 km/h 48.6% 0.0 mm
09:54 7.5 °C -2.5 °C 1028.1 hPa Sur 6.9 km/h 11.3 km/h 49% 0.0 mm
09:59 7.7 °C -2.6 °C 1028.1 hPa SSE 6.9 km/h 11.1 km/h 47.8% 0.0 mm
10:04 7.9 °C -2.8 °C 1028.1 hPa SSE 6.9 km/h 13 km/h 46.7% 0.0 mm
10:09 8 °C -2.9 °C 1028.1 hPa SSE 7.5 km/h 12.9 km/h 46% 0.0 mm
10:14 8.2 °C -2.8 °C 1028.1 hPa SSO 7.6 km/h 11.1 km/h 46% 0.0 mm
10:19 8.3 °C -2.7 °C 1028.1 hPa SO 5.3 km/h 11.3 km/h 45.8% 0.0 mm
10:24 8.3 °C -2.7 °C 1028.4 hPa Sur 5 km/h 10.3 km/h 45.8% 0.0 mm
10:29 8.5 °C -2.7 °C 1028.4 hPa Sur 5.7 km/h 11.9 km/h 45.3% 0.0 mm
10:34 8.6 °C -2.7 °C 1028.4 hPa Sur 5.8 km/h 11.3 km/h 44.8% 0.0 mm
10:39 8.7 °C -2.8 °C 1028.4 hPa Sur 7.4 km/h 11.3 km/h 44.5% 0.0 mm
10:44 8.8 °C -2.9 °C 1028.4 hPa SSO 7.6 km/h 11.3 km/h 43.7% 0.0 mm
10:49 9 °C -2.9 °C 1028.4 hPa SSO 6 km/h 9.7 km/h 43% 0.0 mm
10:54 9.1 °C -3.1 °C 1028.4 hPa SSO 5.8 km/h 13 km/h 42.1% 0.0 mm
10:59 9.2 °C -3 °C 1028.4 hPa Sur 6.7 km/h 12.9 km/h 42% 0.0 mm
11:04 9.4 °C -3.1 °C 1028.4 hPa SSO 6.9 km/h 13 km/h 41.5% 0.0 mm
11:09 9.6 °C -3.1 °C 1028.4 hPa SSO 6.9 km/h 12.9 km/h 41% 0.0 mm
11:14 9.7 °C -2.9 °C 1028.4 hPa Sur 6.9 km/h 14.8 km/h 41.1% 0.0 mm
11:19 9.8 °C -3.1 °C 1028.4 hPa Sur 7.5 km/h 14.8 km/h 40.1% 0.0 mm
11:24 10 °C -3 °C 1028.4 hPa SSO 7.6 km/h 14.5 km/h 40% 0.0 mm
11:29 10.1 °C -2.9 °C 1028.2 hPa SSO 7.6 km/h 12.9 km/h 40% 0.0 mm
11:34 10.2 °C -3.1 °C 1028.2 hPa SSO 7.6 km/h 11.9 km/h 39.3% 0.0 mm
11:39 10.2 °C -2.8 °C 1028.3 hPa SSO 7 km/h 13 km/h 40% 0.0 mm
11:44 10.3 °C -2.7 °C 1028.3 hPa SSO 6.9 km/h 12.9 km/h 40% 0.0 mm
11:49 10.5 °C -2.6 °C 1028.3 hPa SSO 6.9 km/h 13 km/h 39.9% 0.0 mm
11:54 10.7 °C -2.5 °C 1028.3 hPa Sur 6.9 km/h 10 km/h 39.7% 0.0 mm
11:59 10.8 °C -2.6 °C 1028.1 hPa SSO 5.9 km/h 14.8 km/h 38.8% 0.0 mm
12:04 10.9 °C -2.5 °C 1028.1 hPa SSO 5.8 km/h 14.5 km/h 39% 0.0 mm
12:09 11.2 °C -2.5 °C 1028.1 hPa SSO 7.4 km/h 13 km/h 38.2% 0.0 mm
12:14 11.3 °C -2.6 °C 1027.9 hPa Sur 7.6 km/h 13 km/h 37.5% 0.0 mm
12:19 11.5 °C -2.6 °C 1027.9 hPa Sur 7.6 km/h 12.9 km/h 37.4% 0.0 mm
12:24 11.7 °C -2.6 °C 1027.9 hPa SE 7.6 km/h 13.7 km/h 37% 0.0 mm
12:29 11.9 °C -2.7 °C 1027.6 hPa SSE 7.6 km/h 14.5 km/h 36.2% 0.0 mm
12:34 12.1 °C -2.5 °C 1027.6 hPa Sur 7.6 km/h 12.9 km/h 36.2% 0.0 mm
12:39 12.2 °C -2.7 °C 1027.6 hPa Sur 6.6 km/h 12.2 km/h 35.3% 0.0 mm
12:44 12.3 °C -2.7 °C 1027.3 hPa Sur 6.5 km/h 13.7 km/h 35% 0.0 mm
12:49 12.6 °C -2.8 °C 1027.3 hPa Sur 6.9 km/h 14.5 km/h 34.4% 0.0 mm
12:54 12.7 °C -2.8 °C 1027.3 hPa Sur 6.9 km/h 18.5 km/h 34% 0.0 mm
12:59 12.7 °C -2.8 °C 1026.9 hPa Sur 9.7 km/h 19.3 km/h 33.8% 0.0 mm
13:04 12.8 °C -3 °C 1026.9 hPa Sur 10 km/h 14.5 km/h 33.2% 0.0 mm
13:09 12.9 °C -2.9 °C 1026.9 hPa SSE 8.6 km/h 14.8 km/h 33.4% 0.0 mm
13:14 13.1 °C -2.8 °C 1026.6 hPa SSE 8.4 km/h 14.5 km/h 33.1% 0.0 mm
13:19 13.3 °C -2.6 °C 1026.6 hPa SE 6.7 km/h 11.3 km/h 33% 0.0 mm
13:24 13.5 °C -2.8 °C 1026.6 hPa Sur 6.5 km/h 18.5 km/h 32.3% 0.0 mm
13:29 13.7 °C -2.9 °C 1026.4 hPa SSO 8.2 km/h 19.3 km/h 31.8% 0.0 mm
13:34 13.7 °C -2.9 °C 1026.4 hPa Sur 8.4 km/h 16.1 km/h 31.6% 0.0 mm
13:39 14 °C -2.7 °C 1026.4 hPa ENE 7.1 km/h 18.5 km/h 31.5% 0.0 mm
13:44 14.2 °C -2.7 °C 1026.1 hPa Oeste 6.9 km/h 19.3 km/h 30.9% 0.0 mm
13:49 14.3 °C -2.7 °C 1026.1 hPa ONO 9.1 km/h 19.3 km/h 30.8% 0.0 mm
13:54 14.5 °C -2.9 °C 1026.1 hPa ONO 9.5 km/h 17.7 km/h 30.1% 0.0 mm
13:59 14.6 °C -2.5 °C 1025.7 hPa ONO 9.9 km/h 20.4 km/h 30.6% 0.0 mm
14:04 14.7 °C -3.1 °C 1025.7 hPa Oeste 10 km/h 22.2 km/h 29.3% 0.0 mm
14:09 14.7 °C -2.9 °C 1025.7 hPa ONO 12 km/h 22.5 km/h 29.8% 0.0 mm
14:14 14.8 °C -2.9 °C 1025.5 hPa ONO 12.2 km/h 20.9 km/h 29.4% 0.0 mm
14:19 14.9 °C -2.8 °C 1025.5 hPa ONO 11.3 km/h 19.3 km/h 29.5% 0.0 mm
14:24 15.1 °C -2.7 °C 1025.5 hPa ONO 11.1 km/h 19.8 km/h 29.2% 0.0 mm
14:29 15.2 °C -2.9 °C 1025.3 hPa Oeste 9.1 km/h 20.9 km/h 28.7% 0.0 mm
14:34 15.2 °C -2.7 °C 1025.3 hPa NO 8.7 km/h 17.2 km/h 29% 0.0 mm
14:39 15.3 °C -2.6 °C 1025.3 hPa NNO 9.4 km/h 17.7 km/h 29.1% 0.0 mm
14:44 15.4 °C -1.9 °C 1025.1 hPa NNO 9.5 km/h 14.5 km/h 30.6% 0.0 mm
14:49 15.3 °C -2 °C 1025.1 hPa NNE 6.2 km/h 11.3 km/h 30.3% 0.0 mm
14:54 15.4 °C -1.9 °C 1025.1 hPa NNE 5.8 km/h 11.3 km/h 30.5% 0.0 mm
14:59 15.5 °C -1.8 °C 1025.0 hPa NO 5.1 km/h 9.7 km/h 30.5% 0.0 mm
15:04 15.6 °C -1.9 °C 1025.0 hPa Este 5 km/h 8 km/h 30% 0.0 mm
15:09 15.7 °C -2.3 °C 1025.0 hPa ESE 4 km/h 8 km/h 29% 0.0 mm
15:14 15.9 °C -2.1 °C 1024.9 hPa NNE 3.9 km/h 11.1 km/h 29% 0.0 mm
15:19 15.9 °C -2.1 °C 1024.9 hPa NNE 3.9 km/h 11.3 km/h 29% 0.0 mm
15:24 15.8 °C -1.8 °C 1024.9 hPa NNE 3.9 km/h 11.3 km/h 29.8% 0.0 mm
15:29 15.8 °C -1.9 °C 1024.8 hPa NNE 5.5 km/h 11.3 km/h 29.6% 0.0 mm
15:34 15.9 °C -2.1 °C 1024.8 hPa NNE 5.8 km/h 8 km/h 29% 0.0 mm
15:39 16 °C -2 °C 1024.8 hPa North 3.3 km/h 7.4 km/h 28.9% 0.0 mm
15:44 16.2 °C -1.9 °C 1024.8 hPa North 2.9 km/h 8 km/h 29% 0.0 mm
15:49 16.2 °C -1.9 °C 1024.8 hPa NE 3.2 km/h 8 km/h 29% 0.0 mm
15:54 16.2 °C -1.9 °C 1024.8 hPa NE 3.2 km/h 8.4 km/h 29% 0.0 mm
15:59 16.1 °C -1.9 °C 1024.7 hPa NNE 4.5 km/h 10.3 km/h 29.2% 0.0 mm
16:04 16 °C -2 °C 1024.7 hPa NNE 4.7 km/h 11.3 km/h 29% 0.0 mm
16:09 16 °C -1.8 °C 1024.8 hPa NE 6.2 km/h 10 km/h 29.6% 0.0 mm
16:14 16.1 °C -1.8 °C 1024.8 hPa Este 6.5 km/h 13.7 km/h 29.3% 0.0 mm
16:19 16.1 °C -2.4 °C 1024.8 hPa ESE 6.5 km/h 14.5 km/h 28.1% 0.0 mm
16:24 16.2 °C -2.2 °C 1024.8 hPa ESE 6.5 km/h 9.7 km/h 28.2% 0.0 mm
16:29 16.3 °C -2.2 °C 1024.8 hPa SSE 4.9 km/h 11.1 km/h 28.2% 0.0 mm
16:34 16.3 °C -2.8 °C 1024.8 hPa SE 4.7 km/h 13 km/h 27.1% 0.0 mm
16:39 16.3 °C -2.6 °C 1024.9 hPa SE 6.2 km/h 12.9 km/h 27.4% 0.0 mm
16:44 16.4 °C -2.6 °C 1024.9 hPa ESE 6.5 km/h 8 km/h 27.2% 0.0 mm
16:49 16.4 °C -1.6 °C 1024.9 hPa NE 3.6 km/h 11.1 km/h 29.2% 0.0 mm
16:54 16.2 °C -1.3 °C 1025.0 hPa NNE 3.2 km/h 11.9 km/h 30.3% 0.0 mm
16:59 15.9 °C -1.2 °C 1025.0 hPa NNE 6.5 km/h 11.3 km/h 31% 0.0 mm
17:04 15.9 °C -1.2 °C 1025.0 hPa NE 6.9 km/h 10 km/h 31.1% 0.0 mm
17:09 15.8 °C -1 °C 1025.0 hPa NNE 6.5 km/h 9.7 km/h 31.8% 0.0 mm
17:14 15.7 °C -0.7 °C 1025.0 hPa NNE 6.5 km/h 10 km/h 32.7% 0.0 mm
17:19 15.5 °C -0.7 °C 1025.0 hPa NE 5.9 km/h 11.1 km/h 33% 0.0 mm
17:24 15.3 °C -0.8 °C 1025.1 hPa NE 5.8 km/h 11.3 km/h 33.1% 0.0 mm
17:29 15.2 °C -0.5 °C 1025.1 hPa NNE 6.7 km/h 10 km/h 34.1% 0.0 mm
17:34 15.2 °C -0.2 °C 1025.1 hPa North 6.9 km/h 9.7 km/h 35.1% 0.0 mm
17:39 15 °C -0.2 °C 1025.2 hPa NNE 5.3 km/h 11.1 km/h 35.4% 0.0 mm
17:44 14.8 °C -0.3 °C 1025.2 hPa NE 5 km/h 11.3 km/h 35.5% 0.0 mm
17:49 14.6 °C 0.3 °C 1025.2 hPa NE 7.3 km/h 13 km/h 37.8% 0.0 mm
17:54 14.2 °C 1 °C 1025.2 hPa NE 7.6 km/h 13 km/h 40.6% 0.0 mm
17:59 13.8 °C 1.3 °C 1025.1 hPa NE 7.6 km/h 13 km/h 42.5% 0.0 mm
18:04 13.5 °C 1.2 °C 1025.1 hPa NE 7.6 km/h 12.9 km/h 43.2% 0.0 mm
18:09 13.3 °C 1.3 °C 1025.1 hPa ENE 7 km/h 15.6 km/h 44% 0.0 mm
18:14 13.1 °C 1.4 °C 1025.1 hPa ENE 6.9 km/h 16.1 km/h 45% 0.0 mm
18:19 12.9 °C 1.5 °C 1025.1 hPa ENE 6.5 km/h 11.3 km/h 45.8% 0.0 mm
18:24 12.7 °C 1.5 °C 1025.3 hPa NNE 6.5 km/h 9.7 km/h 46.5% 0.0 mm
18:29 12.5 °C 1.6 °C 1025.3 hPa NNE 5.2 km/h 11.1 km/h 47.2% 0.0 mm
18:34 12.3 °C 1.6 °C 1025.3 hPa NNE 5 km/h 11.3 km/h 48% 0.0 mm
18:39 12.2 °C 2 °C 1025.5 hPa NNO 6.3 km/h 11.1 km/h 49.8% 0.0 mm
18:44 11.8 °C 2.5 °C 1025.5 hPa NNE 6.5 km/h 13 km/h 52.8% 0.0 mm
18:49 11.6 °C 2.8 °C 1025.5 hPa NNO 7.4 km/h 9.3 km/h 54.7% 0.0 mm
18:54 11.4 °C 2.9 °C 1025.5 hPa NNO 7.6 km/h 9.3 km/h 55.9% 0.0 mm
18:59 11.2 °C 3.1 °C 1025.5 hPa NO 4.3 km/h 8.4 km/h 57.3% 0.0 mm
19:04 10.9 °C 3.1 °C 1025.5 hPa North 3.9 km/h 9.3 km/h 58.5% 0.0 mm
19:09 10.7 °C 3.2 °C 1025.7 hPa NO 4.6 km/h 9.7 km/h 59.6% 0.0 mm
19:14 10.5 °C 3.2 °C 1025.7 hPa NO 4.7 km/h 8 km/h 60.5% 0.0 mm
19:19 10.3 °C 3.2 °C 1025.7 hPa NNO 3.9 km/h 8 km/h 61.4% 0.0 mm
19:24 10.2 °C 3.2 °C 1025.9 hPa NNE 3.9 km/h 8 km/h 62% 0.0 mm
19:29 10.1 °C 3.1 °C 1025.9 hPa North 3.9 km/h 8 km/h 62% 0.0 mm
19:34 9.9 °C 3 °C 1025.9 hPa North 3.9 km/h 8 km/h 62.4% 0.0 mm
19:39 9.8 °C 3.1 °C 1026.0 hPa NNE 3.9 km/h 8 km/h 63% 0.0 mm
19:44 9.8 °C 3.1 °C 1026.0 hPa NE 3.9 km/h 6.4 km/h 63% 0.0 mm
19:49 9.7 °C 3 °C 1026.0 hPa NNE 3.3 km/h 6.4 km/h 63% 0.0 mm
19:54 9.7 °C 3 °C 1026.2 hPa NNE 3.2 km/h 5.6 km/h 63% 0.0 mm
19:59 9.7 °C 3.3 °C 1026.2 hPa North 3.2 km/h 8.4 km/h 64.1% 0.0 mm
20:04 9.7 °C 3.4 °C 1026.2 hPa NNE 3.2 km/h 8.4 km/h 65% 0.0 mm
20:09 9.7 °C 3.4 °C 1026.3 hPa NNE 4.5 km/h 8 km/h 65% 0.0 mm
20:14 9.6 °C 3.3 °C 1026.3 hPa NNE 4.7 km/h 8 km/h 65% 0.0 mm
20:19 9.6 °C 3.5 °C 1026.3 hPa NNE 3.1 km/h 5.6 km/h 66% 0.0 mm
20:24 9.4 °C 3.4 °C 1026.3 hPa NNE 2.9 km/h 4.8 km/h 66% 0.0 mm
20:29 9.4 °C 3.5 °C 1026.3 hPa NE 2.3 km/h 6.4 km/h 66.8% 0.0 mm
20:34 9.3 °C 3.5 °C 1026.3 hPa SSO 2.2 km/h 11.9 km/h 67% 0.0 mm
20:39 9.2 °C 3.4 °C 1026.3 hPa SO 4.4 km/h 11.3 km/h 67.2% 0.0 mm
20:44 9.1 °C 3.5 °C 1026.3 hPa SO 4.7 km/h 8 km/h 68% 0.0 mm
20:49 9 °C 3.4 °C 1026.3 hPa SO 4 km/h 8 km/h 68.3% 0.0 mm
20:54 8.9 °C 3.5 °C 1026.5 hPa SO 3.9 km/h 8 km/h 69% 0.0 mm
20:59 8.8 °C 3.6 °C 1026.5 hPa SO 3 km/h 8 km/h 70% 0.0 mm
21:04 8.7 °C 3.6 °C 1026.5 hPa SO 2.9 km/h 5 km/h 70% 0.0 mm
21:09 8.7 °C 3.7 °C 1026.5 hPa SO 2.9 km/h 5.6 km/h 71% 0.0 mm
21:14 8.7 °C 3.7 °C 1026.5 hPa SO 2.9 km/h 4.8 km/h 71% 0.0 mm
21:19 8.6 °C 3.6 °C 1026.5 hPa SO 2.3 km/h 4.7 km/h 71% 0.0 mm
21:24 8.5 °C 3.7 °C 1026.6 hPa SSO 2.2 km/h 7.4 km/h 71.9% 0.0 mm
21:29 8.4 °C 3.7 °C 1026.6 hPa Sur 3.1 km/h 8 km/h 72% 0.0 mm
21:34 8.4 °C 3.8 °C 1026.6 hPa SO 3.2 km/h 5.8 km/h 72.5% 0.0 mm
21:39 8.4 °C 3.8 °C 1026.6 hPa SSO 2.9 km/h 6.4 km/h 73% 0.0 mm
21:44 8.4 °C 3.8 °C 1026.6 hPa SSO 2.9 km/h 6.4 km/h 73% 0.0 mm
21:49 8.4 °C 4.1 °C 1026.6 hPa SSO 3.2 km/h 8.7 km/h 74% 0.0 mm
21:54 8.3 °C 3.7 °C 1026.6 hPa SSE 3.2 km/h 11.1 km/h 72.5% 0.0 mm
21:59 8.2 °C 3.7 °C 1026.6 hPa SSE 4.8 km/h 11.3 km/h 72.9% 0.0 mm
22:04 8.1 °C 3.3 °C 1026.6 hPa SSE 5 km/h 9.5 km/h 71.8% 0.0 mm
22:09 7.9 °C 3.1 °C 1026.6 hPa SSE 5.7 km/h 9.7 km/h 71.7% 0.0 mm
22:19 7.6 °C 2.9 °C 1026.6 hPa SE 5.8 km/h 7.6 km/h 72% 0.0 mm
22:24 7.5 °C 2.8 °C 1026.6 hPa SSE 5.8 km/h 9.5 km/h 72% 0.0 mm
22:29 7.5 °C 3 °C 1026.6 hPa SSO 5.8 km/h 10 km/h 72.9% 0.0 mm
22:34 7.6 °C 3.1 °C 1026.6 hPa SSO 5.8 km/h 10 km/h 73% 0.0 mm
22:39 7.7 °C 3.1 °C 1026.6 hPa SO 5.1 km/h 9.7 km/h 73% 0.0 mm
22:44 7.6 °C 3.1 °C 1026.6 hPa SO 5 km/h 8 km/h 73% 0.0 mm
22:49 7.6 °C 3.1 °C 1026.6 hPa SO 4 km/h 8 km/h 73% 0.0 mm
22:54 7.5 °C 3 °C 1026.7 hPa SO 3.9 km/h 5.6 km/h 73% 0.0 mm
22:59 7.4 °C 3 °C 1026.7 hPa SO 3 km/h 4.8 km/h 73.8% 0.0 mm
23:04 7.3 °C 2.9 °C 1026.7 hPa SO 2.9 km/h 3.9 km/h 74% 0.0 mm
23:09 7.2 °C 2.9 °C 1026.9 hPa SO 0.5 km/h 3.7 km/h 74% 0.0 mm
23:14 7 °C 2.8 °C 1026.9 hPa Calm   3.7 km/h 74.7% 0.0 mm
23:19 6.8 °C 2.7 °C 1026.9 hPa Calm   3.2 km/h 75% 0.0 mm
23:24 6.7 °C 2.7 °C 1026.9 hPa Calm   3.9 km/h 75.4% 0.0 mm
23:29 6.7 °C 2.7 °C 1026.9 hPa Calm   5.6 km/h 76% 0.0 mm
23:34 6.6 °C 2.5 °C 1026.9 hPa Calm   5.8 km/h 75.3% 0.0 mm
23:39 6.4 °C 2.3 °C 1026.9 hPa ESE 2.7 km/h 6.4 km/h 75% 0.0 mm
23:44 6.3 °C 2.2 °C 1026.9 hPa ESE 3.2 km/h 7.4 km/h 75% 0.0 mm
23:49 6.3 °C 2.2 °C 1026.9 hPa SE 3.2 km/h 8 km/h 75% 0.0 mm
23:54 6.3 °C 2.2 °C 1026.9 hPa SSE 3.2 km/h 7.6 km/h 75% 0.0 mm
23:59 6.3 °C 2.2 °C 1026.8 hPa SSE 4.7 km/h 10 km/h 75% 0.0 mm
Murcia-Puente Tocinos, Espa?a
Compliments of Weather Underground - 3 mb

La estación de MeteoMurcia.com, publica sus datos en los siguientes proyectos:

Weather Underground PWS IMURCIAP2 Meteoclimatic www.awekas.at

W3Counter
Web Analytics